Date,TemperatureHighF,TemperatureAvgF,TemperatureLowF,DewpointHighF,DewpointAvgF,DewpointLowF,HumidityHigh,HumidityAvg,HumidityLow,PressureMaxIn,PressureMinIn,WindSpeedMaxMPH,WindSpeedAvgMPH,GustSpeedMaxMPH,PrecipitationSumIn
2013-11-1,63.0,59.5,51.0,63.0,56.1,44.2,100,89,56,29.73,29.37,16,4,25,0.54
2013-11-2,62.0,51.2,43.0,48.6,45.4,42.4,100,82,53,29.73,29.59,10,2,13,0.08
2013-11-3,44.0,37.0,27.0,42.4,27.3,18.7,94,69,42,30.39,29.74,6,2,13,0.00
2013-11-4,39.0,29.7,24.0,23.6,19.9,16.0,87,68,41,30.66,30.39,6,1,8,0.00
2013-11-5,46.0,34.5,25.0,33.7,27.9,19.4,94,78,53,30.66,30.45,11,1,14,0.00
2013-11-6,57.0,46.2,34.0,46.5,40.7,31.9,100,82,63,30.45,29.94,13,2,19,0.00
2013-11-7,56.0,49.1,39.0,56.0,45.7,28.6,100,88,66,29.95,29.65,17,5,21,0.24
2013-11-8,42.0,36.5,32.0,32.4,25.8,22.5,77,65,55,30.02,29.79,14,4,22,0.00
2013-11-9,39.0,35.9,33.0,29.1,23.8,20.6,72,61,52,30.13,29.99,13,3,18,0.00
2013-11-10,41.0,37.9,33.0,41.0,36.2,29.1,100,94,73,29.99,29.70,9,2,13,0.15
2013-11-11,45.0,38.5,34.0,36.5,30.8,27.2,98,74,56,30.03,29.81,13,3,27,0.01
2013-11-12,42.0,30.0,25.0,34.3,20.5,14.8,92,68,59,30.11,29.81,13,5,26,0.00
2013-11-13,30.0,25.3,20.0,17.8,13.7,11.3,73,62,47,30.22,30.06,13,3,18,0.00
2013-11-14,30.0,27.8,26.0,27.7,20.3,16.9,91,73,68,30.06,30.01,7,3,12,0.00
2013-11-15,52.0,37.8,29.0,33.0,28.3,24.2,96,71,37,30.15,30.04,7,1,10,0.00
2013-11-17,44.0,41.9,41.0,44.0,41.9,41.0,100,100,100,30.17,29.86,2,0,3,0.19
2013-11-18,60.0,51.6,44.0,57.0,44.4,31.5,100,78,50,29.86,29.48,14,3,23,0.51
2013-11-19,45.0,33.9,29.0,31.8,21.3,16.1,78,60,50,30.23,29.61,14,5,25,0.00
2013-11-20,38.0,30.4,26.0,19.1,16.0,13.5,68,55,39,30.54,30.23,11,3,21,0.00
2013-11-23,37.0,29.9,24.0,28.0,22.1,16.0,100,75,48,29.79,29.71,14,3,19,0.00
2013-11-24,24.0,18.4,15.0,16.3,8.8,2.1,87,66,49,29.95,29.73,17,7,42,0.00
2013-11-25,27.0,21.5,13.0,16.4,4.6,-3.9,64,48,32,30.28,30.16,12,3,26,0.00
2013-11-26,33.0,29.3,25.0,31.0,25.6,15.7,100,87,57,30.26,30.08,9,2,16,0.01
2013-11-27,48.0,38.5,31.0,47.0,38.2,29.0,100,99,86,30.07,29.21,13,2,26,2.81
2013-11-28,33.0,25.6,18.0,29.0,14.2,5.8,85,63,44,30.35,29.35,14,4,27,0.00
2013-11-29,26.0,19.5,15.0,10.1,8.2,6.4,79,61,46,30.68,30.34,10,2,13,0.00
2013-11-30,32.0,21.0,10.0,27.7,15.4,8.6,100,80,56,30.75,30.38,11,2,15,0.00